createdAt,value
2022-11-05T00:00:08.724Z,99883.09
2022-11-05T00:05:45.721Z,99909.31
2022-11-05T00:10:47.795Z,99894.53
2022-11-05T00:16:08.260Z,99910.28
2022-11-05T00:21:30.114Z,99915.66
2022-11-05T00:26:31.998Z,99917.56
2022-11-05T00:31:33.900Z,99914.34
2022-11-05T00:36:35.780Z,99915.66
2022-11-05T00:41:37.719Z,99916.31
2022-11-05T00:46:39.663Z,99925.38
2022-11-05T00:51:41.505Z,99925.00
2022-11-05T00:56:43.385Z,99928.28
2022-11-05T01:01:45.452Z,99923.63
2022-11-05T01:06:47.452Z,99930.53
2022-11-05T01:11:49.443Z,99931.13
2022-11-05T01:16:51.351Z,99940.06
2022-11-05T01:21:54.204Z,99942.44
2022-11-05T01:26:56.442Z,99942.81
2022-11-05T01:31:58.587Z,99955.66
2022-11-05T01:37:00.576Z,99952.19
2022-11-05T01:42:02.689Z,99954.69
2022-11-05T01:47:04.687Z,99952.91
2022-11-05T01:52:06.632Z,99965.19
2022-11-05T01:57:10.843Z,99973.31
2022-11-05T02:02:12.936Z,99968.88
2022-11-05T02:07:15.101Z,99974.28
2022-11-05T02:12:18.457Z,99984.06
2022-11-05T02:17:46.903Z,99980.47
2022-11-05T02:23:07.521Z,99989.03
2022-11-05T02:28:21.785Z,99992.75
2022-11-05T02:33:30.108Z,99992.16
2022-11-05T02:38:41.155Z,99992.28
2022-11-05T02:43:48.095Z,99996.47
2022-11-05T02:48:58.041Z,99995.38
2022-11-05T02:54:18.848Z,99997.88
2022-11-05T02:59:20.741Z,100002.16
2022-11-05T03:04:23.761Z,100003.13
2022-11-05T03:09:49.007Z,100000.38
2022-11-05T03:14:58.921Z,100015.41
2022-11-05T03:20:00.799Z,100022.34
2022-11-05T03:25:06.945Z,100018.88
2022-11-05T03:30:10.878Z,100025.91
2022-11-05T03:35:15.254Z,100024.13
2022-11-05T03:40:18.637Z,100037.91
2022-11-05T03:45:41.520Z,100044.13
2022-11-05T03:50:49.565Z,100042.09
2022-11-05T03:56:11.664Z,100054.38
2022-11-05T04:01:14.501Z,100058.06
2022-11-05T04:06:34.911Z,100060.22
2022-11-05T04:11:55.101Z,100064.84
2022-11-05T04:17:09.941Z,100062.50
2022-11-05T04:22:30.448Z,100066.06
2022-11-05T04:27:32.388Z,100071.06
2022-11-05T04:32:34.263Z,100067.34
2022-11-05T04:37:36.229Z,100067.25
2022-11-05T04:42:38.111Z,100079.50
2022-11-05T04:47:40.040Z,100069.63
2022-11-05T04:52:41.987Z,100075.47
2022-11-05T04:57:43.887Z,100076.09
2022-11-05T05:02:46.461Z,100085.13
2022-11-05T05:07:48.317Z,100084.78
2022-11-05T05:12:50.266Z,100090.16
2022-11-05T05:17:52.565Z,100102.22
2022-11-05T05:22:54.854Z,100096.84
2022-11-05T05:27:59.560Z,100104.34
2022-11-05T05:33:02.191Z,100117.00
2022-11-05T05:38:04.106Z,100125.34
2022-11-05T05:43:06.004Z,100128.31
2022-11-05T05:48:07.891Z,100136.56
2022-11-05T05:53:10.264Z,100139.66
2022-11-05T05:58:12.510Z,100136.81
2022-11-05T06:03:14.730Z,100141.09
2022-11-05T06:08:16.796Z,100146.94
2022-11-05T06:13:18.745Z,100150.16
2022-11-05T06:18:20.719Z,100157.19
2022-11-05T06:23:22.605Z,100155.41
2022-11-05T06:28:24.609Z,100153.72
2022-11-05T06:33:27.013Z,100169.63
2022-11-05T06:38:31.402Z,100165.06
2022-11-05T06:43:33.506Z,100158.28
2022-11-05T06:48:35.454Z,100173.78
2022-11-05T06:53:37.326Z,100174.13
2022-11-05T06:58:39.215Z,100177.97
2022-11-05T07:03:41.180Z,100170.31
2022-11-05T07:08:43.070Z,100185.34
2022-11-05T07:13:44.956Z,100182.94
2022-11-05T07:18:46.884Z,100190.47
2022-11-05T07:23:48.884Z,100202.06
2022-11-05T07:28:50.865Z,100207.19
2022-11-05T07:33:52.821Z,100217.81
2022-11-05T07:38:59.867Z,100207.44
2022-11-05T07:44:03.940Z,100219.38
2022-11-05T07:49:05.868Z,100228.66
2022-11-05T07:54:07.891Z,100231.16
2022-11-05T07:59:09.791Z,100235.34
2022-11-05T08:04:11.692Z,100229.75
2022-11-05T08:09:13.647Z,100229.72
2022-11-05T08:14:15.644Z,100233.78
2022-11-05T08:19:17.599Z,100238.66
2022-11-05T08:24:19.633Z,100240.94
2022-11-05T08:29:21.519Z,100246.28
2022-11-05T08:34:23.530Z,100238.38
2022-11-05T08:39:25.611Z,100243.88
2022-11-05T08:44:27.624Z,100254.28
2022-11-05T08:49:29.620Z,100252.63
2022-11-05T08:54:31.581Z,100251.28
2022-11-05T08:59:33.593Z,100252.72
2022-11-05T09:04:35.536Z,100253.44
2022-11-05T09:09:37.556Z,100243.38
2022-11-05T09:14:39.410Z,100246.75
2022-11-05T09:19:41.392Z,100251.28
2022-11-05T09:24:43.576Z,100250.47
2022-11-05T09:29:45.612Z,100253.06
2022-11-05T09:34:49.067Z,100256.38
2022-11-05T09:39:51.029Z,100257.56
2022-11-05T09:44:56.470Z,100250.09
2022-11-05T09:50:00.873Z,100257.28
2022-11-05T09:55:03.902Z,100260.44
2022-11-05T10:00:07.069Z,100260.97
2022-11-05T10:05:12.084Z,100265.31
2022-11-05T10:10:27.267Z,100272.72
2022-11-05T10:15:31.352Z,100281.78
2022-11-05T10:20:37.641Z,100280.00
2022-11-05T10:25:42.328Z,100276.91
2022-11-05T10:30:45.426Z,100287.91
2022-11-05T10:35:52.024Z,100295.16
2022-11-05T10:40:57.190Z,100281.28
2022-11-05T10:46:04.869Z,100293.09
2022-11-05T10:51:07.324Z,100292.00
2022-11-05T10:56:48.451Z,100290.22
2022-11-05T11:02:10.057Z,100292.25
2022-11-05T11:07:19.959Z,100292.16
2022-11-05T11:12:24.275Z,100297.06
2022-11-05T11:17:27.891Z,100295.38
2022-11-05T11:22:30.076Z,100309.75
2022-11-05T11:27:34.114Z,100306.78
2022-11-05T11:32:39.415Z,100308.56
2022-11-05T11:37:42.266Z,100314.53
2022-11-05T11:42:46.011Z,100328.88
2022-11-05T11:47:49.404Z,100331.03
2022-11-05T11:52:52.325Z,100332.81
2022-11-05T11:58:04.710Z,100332.56
2022-11-05T12:03:06.723Z,100326.94
2022-11-05T12:08:30.243Z,100333.88
2022-11-05T12:13:52.394Z,100329.56
2022-11-05T12:19:10.320Z,100328.13
2022-11-05T12:24:18.337Z,100334.56
2022-11-05T12:29:26.714Z,100333.72
2022-11-05T12:34:51.423Z,100344.34
2022-11-05T12:40:11.763Z,100320.59
2022-11-05T12:45:19.918Z,100337.41
2022-11-05T12:50:45.519Z,100344.09
2022-11-05T12:55:49.604Z,100347.91
2022-11-05T13:00:55.552Z,100363.16
2022-11-05T13:06:12.484Z,100350.47
2022-11-05T13:11:21.698Z,100361.09
2022-11-05T13:16:27.406Z,100370.75
2022-11-05T13:21:30.167Z,100370.03
2022-11-05T13:26:47.339Z,100365.97
2022-11-05T13:31:53.472Z,100369.88
2022-11-05T13:37:19.751Z,100388.09
2022-11-05T13:42:44.361Z,100385.19
2022-11-05T13:48:00.939Z,100389.91
2022-11-05T13:53:05.584Z,100399.47
2022-11-05T13:58:26.178Z,100395.06
2022-11-05T14:03:28.397Z,100405.56
2022-11-05T14:08:34.135Z,100409.22
2022-11-05T14:13:42.323Z,100413.75
2022-11-05T14:18:45.680Z,100420.78
2022-11-05T14:23:54.171Z,100421.72
2022-11-05T14:28:58.786Z,100416.81
2022-11-05T14:34:09.916Z,100418.09
2022-11-05T14:39:18.703Z,100425.22
2022-11-05T14:44:21.197Z,100428.47
2022-11-05T14:49:29.006Z,100426.38
2022-11-05T14:54:36.786Z,100413.00
2022-11-05T14:59:53.023Z,100428.53
2022-11-05T15:05:15.167Z,100431.25
2022-11-05T15:10:17.412Z,100433.16
2022-11-05T15:15:22.118Z,100432.56
2022-11-05T15:20:29.644Z,100423.97
2022-11-05T15:25:42.333Z,100428.47
2022-11-05T15:31:01.219Z,100440.03
2022-11-05T15:36:21.753Z,100436.78
2022-11-05T15:41:26.029Z,100452.50
2022-11-05T15:46:28.345Z,100460.28
2022-11-05T15:51:30.323Z,100453.25
2022-11-05T15:56:32.330Z,100456.50
2022-11-05T16:01:45.322Z,100453.13
2022-11-05T16:06:49.083Z,100462.25
2022-11-05T16:12:10.088Z,100461.53
2022-11-05T16:17:22.073Z,100441.50
2022-11-05T16:22:24.961Z,100449.06
2022-11-05T16:27:26.872Z,100446.31
2022-11-05T16:32:31.527Z,100445.28
2022-11-05T16:37:39.792Z,100444.31
2022-11-05T16:42:42.313Z,100461.13
2022-11-05T16:47:47.727Z,100450.63
2022-11-05T16:52:49.844Z,100454.91
2022-11-05T16:57:53.573Z,100451.56
2022-11-05T17:02:56.337Z,100460.47
2022-11-05T17:07:58.692Z,100463.84
2022-11-05T17:13:01.265Z,100470.56
2022-11-05T17:18:04.450Z,100469.50
2022-11-05T17:23:06.433Z,100463.41
2022-11-05T17:28:09.272Z,100463.41
2022-11-05T17:33:12.100Z,100458.28
2022-11-05T17:38:14.912Z,100475.69
2022-11-05T17:43:17.184Z,100469.59
2022-11-05T17:48:20.113Z,100470.66
2022-11-05T17:53:22.010Z,100477.06
2022-11-05T17:58:24.034Z,100472.38
2022-11-05T18:03:25.926Z,100476.03
2022-11-05T18:08:27.815Z,100478.75
2022-11-05T18:13:29.680Z,100477.81
2022-11-05T18:18:33.611Z,100485.59
2022-11-05T18:23:35.558Z,100478.44
2022-11-05T18:28:37.756Z,100485.38
2022-11-05T18:33:39.705Z,100482.03
2022-11-05T18:38:41.606Z,100477.63
2022-11-05T18:43:43.550Z,100490.81
2022-11-05T18:48:45.414Z,100486.44
2022-11-05T18:53:47.309Z,100484.53
2022-11-05T18:58:49.803Z,100485.88
2022-11-05T19:03:52.211Z,100483.78
2022-11-05T19:08:55.516Z,100484.50
2022-11-05T19:13:57.422Z,100488.06
2022-11-05T19:19:00.326Z,100501.09
2022-11-05T19:24:02.961Z,100507.28
2022-11-05T19:29:05.481Z,100508.84
2022-11-05T19:34:07.416Z,100503.50
2022-11-05T19:39:11.160Z,100511.84
2022-11-05T19:44:13.408Z,100519.50
2022-11-05T19:49:18.307Z,100526.66
2022-11-05T19:54:20.196Z,100526.66
2022-11-05T19:59:22.079Z,100518.19
2022-11-05T20:04:23.988Z,100524.81
2022-11-05T20:09:25.904Z,100532.69
2022-11-05T20:14:27.868Z,100528.69
2022-11-05T20:19:29.852Z,100534.31
2022-11-05T20:24:31.782Z,100540.00
2022-11-05T20:29:35.727Z,100534.75
2022-11-05T20:34:38.090Z,100526.16
2022-11-05T20:39:40.010Z,100534.41
2022-11-05T20:44:41.944Z,100523.19
2022-11-05T20:49:43.866Z,100523.44
2022-11-05T20:54:45.921Z,100524.56
2022-11-05T20:59:47.897Z,100529.53
2022-11-05T21:04:49.953Z,100535.69
2022-11-05T21:09:51.948Z,100529.81
2022-11-05T21:14:53.997Z,100524.56
2022-11-05T21:19:55.998Z,100532.25
2022-11-05T21:24:57.931Z,100519.03
2022-11-05T21:29:59.883Z,100534.84
2022-11-05T21:35:01.822Z,100532.78
2022-11-05T21:40:05.122Z,100534.03
2022-11-05T21:45:07.202Z,100543.97
2022-11-05T21:50:10.505Z,100544.50
2022-11-05T21:55:31.523Z,100544.06
2022-11-05T22:00:33.606Z,100547.22
2022-11-05T22:05:35.562Z,100549.09
2022-11-05T22:10:37.573Z,100549.19
2022-11-05T22:15:39.488Z,100543.06
2022-11-05T22:20:42.615Z,100537.59
2022-11-05T22:25:44.569Z,100542.84
2022-11-05T22:30:46.524Z,100547.78
2022-11-05T22:35:48.776Z,100556.16
2022-11-05T22:40:50.720Z,100569.47
2022-11-05T22:45:52.704Z,100568.72
2022-11-05T22:50:54.618Z,100566.63
2022-11-05T22:55:56.520Z,100577.84
2022-11-05T23:00:58.802Z,100578.19
2022-11-05T23:06:02.154Z,100585.06
2022-11-05T23:11:22.618Z,100587.81
2022-11-05T23:16:42.926Z,100590.97
2022-11-05T23:22:03.110Z,100585.75
2022-11-05T23:27:05.049Z,100590.38
2022-11-05T23:32:25.128Z,100585.59
2022-11-05T23:37:47.335Z,100586.91
2022-11-05T23:43:08.120Z,100588.47
2022-11-05T23:48:36.188Z,100572.66
2022-11-05T23:53:40.964Z,100578.53
2022-11-05T23:58:43.065Z,100573.22
